sensor_id;sensor_type;location;lat;lon;timestamp;temperature;humidity
7234;DHT22;3658;47.992;10.158;2022-08-03T00:00:56;23.80;56.40
7234;DHT22;3658;47.992;10.158;2022-08-03T00:03:23;23.80;56.40
7234;DHT22;3658;47.992;10.158;2022-08-03T00:05:50;23.80;56.40
7234;DHT22;3658;47.992;10.158;2022-08-03T00:08:17;23.80;56.50
7234;DHT22;3658;47.992;10.158;2022-08-03T00:10:44;23.80;56.40
7234;DHT22;3658;47.992;10.158;2022-08-03T00:13:11;23.80;56.40
7234;DHT22;3658;47.992;10.158;2022-08-03T00:15:41;23.80;56.40
7234;DHT22;3658;47.992;10.158;2022-08-03T00:18:08;23.80;56.40
7234;DHT22;3658;47.992;10.158;2022-08-03T00:20:35;23.80;56.40
7234;DHT22;3658;47.992;10.158;2022-08-03T00:23:03;23.80;56.40
7234;DHT22;3658;47.992;10.158;2022-08-03T00:25:31;23.90;56.50
7234;DHT22;3658;47.992;10.158;2022-08-03T00:27:58;23.80;56.40
7234;DHT22;3658;47.992;10.158;2022-08-03T00:30:25;23.80;56.40
7234;DHT22;3658;47.992;10.158;2022-08-03T00:32:54;23.80;56.40
7234;DHT22;3658;47.992;10.158;2022-08-03T00:35:21;23.80;56.40
7234;DHT22;3658;47.992;10.158;2022-08-03T00:37:48;23.80;56.50
7234;DHT22;3658;47.992;10.158;2022-08-03T00:40:16;23.80;56.40
7234;DHT22;3658;47.992;10.158;2022-08-03T00:42:48;23.80;56.50
7234;DHT22;3658;47.992;10.158;2022-08-03T00:45:16;23.80;56.50
7234;DHT22;3658;47.992;10.158;2022-08-03T00:47:44;23.80;56.40
7234;DHT22;3658;47.992;10.158;2022-08-03T00:50:13;23.80;56.40
7234;DHT22;3658;47.992;10.158;2022-08-03T00:52:40;23.80;56.40
7234;DHT22;3658;47.992;10.158;2022-08-03T00:55:08;23.80;56.40
7234;DHT22;3658;47.992;10.158;2022-08-03T00:57:36;23.80;56.50
7234;DHT22;3658;47.992;10.158;2022-08-03T01:00:04;23.80;56.40
7234;DHT22;3658;47.992;10.158;2022-08-03T01:02:31;23.80;56.50
7234;DHT22;3658;47.992;10.158;2022-08-03T01:04:58;23.80;56.50
7234;DHT22;3658;47.992;10.158;2022-08-03T01:07:36;23.80;56.40
7234;DHT22;3658;47.992;10.158;2022-08-03T01:10:12;23.80;56.40
7234;DHT22;3658;47.992;10.158;2022-08-03T01:12:45;23.80;56.40
7234;DHT22;3658;47.992;10.158;2022-08-03T01:15:20;23.80;56.50
7234;DHT22;3658;47.992;10.158;2022-08-03T01:17:54;23.80;56.40
7234;DHT22;3658;47.992;10.158;2022-08-03T01:20:23;23.80;56.40
7234;DHT22;3658;47.992;10.158;2022-08-03T01:23:30;23.80;56.50
7234;DHT22;3658;47.992;10.158;2022-08-03T01:26:08;23.80;56.40
7234;DHT22;3658;47.992;10.158;2022-08-03T01:28:58;23.80;56.50
7234;DHT22;3658;47.992;10.158;2022-08-03T01:31:32;23.80;56.40
7234;DHT22;3658;47.992;10.158;2022-08-03T01:34:05;23.80;56.40
7234;DHT22;3658;47.992;10.158;2022-08-03T01:36:35;23.80;56.50
7234;DHT22;3658;47.992;10.158;2022-08-03T01:39:05;23.80;56.40
7234;DHT22;3658;47.992;10.158;2022-08-03T01:41:38;23.80;56.40
7234;DHT22;3658;47.992;10.158;2022-08-03T01:44:07;23.80;56.40
7234;DHT22;3658;47.992;10.158;2022-08-03T01:46:37;23.80;56.40
7234;DHT22;3658;47.992;10.158;2022-08-03T01:49:08;23.80;56.40
7234;DHT22;3658;47.992;10.158;2022-08-03T01:54:05;23.80;56.40
7234;DHT22;3658;47.992;10.158;2022-08-03T01:56:35;23.80;56.40
7234;DHT22;3658;47.992;10.158;2022-08-03T01:59:04;23.80;56.40
7234;DHT22;3658;47.992;10.158;2022-08-03T02:01:35;23.80;56.40
7234;DHT22;3658;47.992;10.158;2022-08-03T02:04:04;23.80;56.40
7234;DHT22;3658;47.992;10.158;2022-08-03T02:06:33;23.80;56.40
7234;DHT22;3658;47.992;10.158;2022-08-03T02:09:02;23.80;56.40
7234;DHT22;3658;47.992;10.158;2022-08-03T02:11:31;23.80;56.40
7234;DHT22;3658;47.992;10.158;2022-08-03T02:14:01;23.80;56.50
7234;DHT22;3658;47.992;10.158;2022-08-03T02:16:32;23.80;56.40
7234;DHT22;3658;47.992;10.158;2022-08-03T02:19:02;23.80;56.40
7234;DHT22;3658;47.992;10.158;2022-08-03T02:21:32;23.80;56.40
7234;DHT22;3658;47.992;10.158;2022-08-03T02:24:01;23.80;56.40
7234;DHT22;3658;47.992;10.158;2022-08-03T02:26:29;23.80;56.40
7234;DHT22;3658;47.992;10.158;2022-08-03T02:29:01;23.80;56.40
7234;DHT22;3658;47.992;10.158;2022-08-03T02:31:31;23.80;56.40
7234;DHT22;3658;47.992;10.158;2022-08-03T02:34:03;23.80;56.40
7234;DHT22;3658;47.992;10.158;2022-08-03T02:36:35;23.80;56.50
7234;DHT22;3658;47.992;10.158;2022-08-03T02:39:05;23.80;56.40
7234;DHT22;3658;47.992;10.158;2022-08-03T02:41:37;23.80;56.40
7234;DHT22;3658;47.992;10.158;2022-08-03T02:44:08;23.80;56.40
7234;DHT22;3658;47.992;10.158;2022-08-03T02:46:38;23.80;56.40
7234;DHT22;3658;47.992;10.158;2022-08-03T02:49:10;23.80;56.40
7234;DHT22;3658;47.992;10.158;2022-08-03T02:51:38;23.80;56.40
7234;DHT22;3658;47.992;10.158;2022-08-03T02:54:07;23.80;56.40
7234;DHT22;3658;47.992;10.158;2022-08-03T02:56:36;23.80;56.40
7234;DHT22;3658;47.992;10.158;2022-08-03T02:59:05;23.80;57.10
7234;DHT22;3658;47.992;10.158;2022-08-03T03:01:32;23.80;56.40
7234;DHT22;3658;47.992;10.158;2022-08-03T03:04:00;23.80;56.50
7234;DHT22;3658;47.992;10.158;2022-08-03T03:06:29;23.80;56.40
7234;DHT22;3658;47.992;10.158;2022-08-03T03:08:56;23.80;56.40
7234;DHT22;3658;47.992;10.158;2022-08-03T03:11:25;23.80;56.40
7234;DHT22;3658;47.992;10.158;2022-08-03T03:13:52;23.80;56.40
7234;DHT22;3658;47.992;10.158;2022-08-03T03:16:21;23.80;56.40
7234;DHT22;3658;47.992;10.158;2022-08-03T03:18:49;23.80;57.10
7234;DHT22;3658;47.992;10.158;2022-08-03T03:21:18;23.80;56.40
7234;DHT22;3658;47.992;10.158;2022-08-03T03:23:47;23.80;56.40
7234;DHT22;3658;47.992;10.158;2022-08-03T03:26:15;23.80;56.40
7234;DHT22;3658;47.992;10.158;2022-08-03T03:28:43;23.80;56.40
7234;DHT22;3658;47.992;10.158;2022-08-03T03:31:10;23.80;56.40
7234;DHT22;3658;47.992;10.158;2022-08-03T03:33:38;23.80;56.40
7234;DHT22;3658;47.992;10.158;2022-08-03T03:36:06;23.80;56.40
7234;DHT22;3658;47.992;10.158;2022-08-03T03:38:33;23.80;56.40
7234;DHT22;3658;47.992;10.158;2022-08-03T03:41:03;23.80;56.40
7234;DHT22;3658;47.992;10.158;2022-08-03T03:43:30;23.80;56.40
7234;DHT22;3658;47.992;10.158;2022-08-03T03:45:58;23.80;56.40
7234;DHT22;3658;47.992;10.158;2022-08-03T03:48:26;23.80;56.40
7234;DHT22;3658;47.992;10.158;2022-08-03T03:50:53;23.80;56.40
7234;DHT22;3658;47.992;10.158;2022-08-03T03:53:21;23.80;56.40
7234;DHT22;3658;47.992;10.158;2022-08-03T03:55:51;23.80;56.40
7234;DHT22;3658;47.992;10.158;2022-08-03T03:58:20;23.80;56.40
7234;DHT22;3658;47.992;10.158;2022-08-03T04:00:47;23.80;56.40
7234;DHT22;3658;47.992;10.158;2022-08-03T04:03:14;23.80;56.40
7234;DHT22;3658;47.992;10.158;2022-08-03T04:05:42;23.80;56.40
7234;DHT22;3658;47.992;10.158;2022-08-03T04:08:26;23.80;56.40
7234;DHT22;3658;47.992;10.158;2022-08-03T04:11:13;23.80;56.40
7234;DHT22;3658;47.992;10.158;2022-08-03T04:13:48;23.80;56.40
7234;DHT22;3658;47.992;10.158;2022-08-03T04:16:19;23.80;56.40
7234;DHT22;3658;47.992;10.158;2022-08-03T04:18:56;23.80;56.40
7234;DHT22;3658;47.992;10.158;2022-08-03T04:21:25;23.80;56.40
7234;DHT22;3658;47.992;10.158;2022-08-03T04:23:55;23.80;56.40
7234;DHT22;3658;47.992;10.158;2022-08-03T04:26:25;23.80;56.40
7234;DHT22;3658;47.992;10.158;2022-08-03T04:28:54;23.80;56.40
7234;DHT22;3658;47.992;10.158;2022-08-03T04:31:23;23.80;56.40
7234;DHT22;3658;47.992;10.158;2022-08-03T04:33:52;23.80;56.40
7234;DHT22;3658;47.992;10.158;2022-08-03T04:36:22;23.80;56.40
7234;DHT22;3658;47.992;10.158;2022-08-03T04:38:57;23.80;56.40
7234;DHT22;3658;47.992;10.158;2022-08-03T04:41:27;23.80;56.40
7234;DHT22;3658;47.992;10.158;2022-08-03T04:43:57;23.80;56.40
7234;DHT22;3658;47.992;10.158;2022-08-03T04:46:27;23.80;56.40
7234;DHT22;3658;47.992;10.158;2022-08-03T04:48:55;23.80;56.40
7234;DHT22;3658;47.992;10.158;2022-08-03T04:51:23;23.80;56.40
7234;DHT22;3658;47.992;10.158;2022-08-03T04:53:50;23.80;56.40
7234;DHT22;3658;47.992;10.158;2022-08-03T04:56:17;23.80;56.40
7234;DHT22;3658;47.992;10.158;2022-08-03T04:58:44;23.80;56.40
7234;DHT22;3658;47.992;10.158;2022-08-03T05:01:12;23.80;56.40
7234;DHT22;3658;47.992;10.158;2022-08-03T05:03:40;23.80;56.40
7234;DHT22;3658;47.992;10.158;2022-08-03T05:06:07;23.80;56.40
7234;DHT22;3658;47.992;10.158;2022-08-03T05:08:34;23.80;56.40
7234;DHT22;3658;47.992;10.158;2022-08-03T05:11:01;23.80;56.40
7234;DHT22;3658;47.992;10.158;2022-08-03T05:13:28;23.80;56.40
7234;DHT22;3658;47.992;10.158;2022-08-03T05:15:55;23.80;56.40
7234;DHT22;3658;47.992;10.158;2022-08-03T05:18:24;23.80;56.40
7234;DHT22;3658;47.992;10.158;2022-08-03T05:20:50;23.80;56.40
7234;DHT22;3658;47.992;10.158;2022-08-03T05:23:17;23.80;56.40
7234;DHT22;3658;47.992;10.158;2022-08-03T05:25:44;23.80;56.40
7234;DHT22;3658;47.992;10.158;2022-08-03T05:28:11;23.80;56.40
7234;DHT22;3658;47.992;10.158;2022-08-03T05:30:38;23.80;56.40
7234;DHT22;3658;47.992;10.158;2022-08-03T05:33:05;23.80;56.40
7234;DHT22;3658;47.992;10.158;2022-08-03T05:35:34;23.80;56.40
7234;DHT22;3658;47.992;10.158;2022-08-03T05:38:01;23.80;56.40
7234;DHT22;3658;47.992;10.158;2022-08-03T05:40:29;23.80;56.40
7234;DHT22;3658;47.992;10.158;2022-08-03T05:42:56;23.80;56.40
7234;DHT22;3658;47.992;10.158;2022-08-03T05:45:23;23.80;56.40
7234;DHT22;3658;47.992;10.158;2022-08-03T05:47:50;23.80;56.40
7234;DHT22;3658;47.992;10.158;2022-08-03T05:50:18;23.80;56.40
7234;DHT22;3658;47.992;10.158;2022-08-03T05:52:47;23.80;56.40
7234;DHT22;3658;47.992;10.158;2022-08-03T05:55:13;23.80;56.40
7234;DHT22;3658;47.992;10.158;2022-08-03T05:57:41;23.80;56.40
7234;DHT22;3658;47.992;10.158;2022-08-03T06:00:10;23.80;56.40
7234;DHT22;3658;47.992;10.158;2022-08-03T06:02:37;23.80;56.40
7234;DHT22;3658;47.992;10.158;2022-08-03T06:05:05;23.80;56.40
7234;DHT22;3658;47.992;10.158;2022-08-03T06:07:34;23.80;56.40
7234;DHT22;3658;47.992;10.158;2022-08-03T06:10:03;23.80;56.40
7234;DHT22;3658;47.992;10.158;2022-08-03T06:12:30;23.80;56.40
7234;DHT22;3658;47.992;10.158;2022-08-03T06:15:00;23.80;56.40
7234;DHT22;3658;47.992;10.158;2022-08-03T06:17:27;23.80;56.40
7234;DHT22;3658;47.992;10.158;2022-08-03T06:19:54;23.80;56.40
7234;DHT22;3658;47.992;10.158;2022-08-03T06:22:21;23.80;56.40
7234;DHT22;3658;47.992;10.158;2022-08-03T06:24:48;23.80;56.40
7234;DHT22;3658;47.992;10.158;2022-08-03T06:27:16;23.80;56.40
7234;DHT22;3658;47.992;10.158;2022-08-03T06:29:44;23.80;56.40
7234;DHT22;3658;47.992;10.158;2022-08-03T06:32:11;23.80;56.40
7234;DHT22;3658;47.992;10.158;2022-08-03T06:34:37;23.80;56.40
7234;DHT22;3658;47.992;10.158;2022-08-03T06:37:04;23.80;56.40
7234;DHT22;3658;47.992;10.158;2022-08-03T06:39:31;23.80;56.40
7234;DHT22;3658;47.992;10.158;2022-08-03T06:41:58;23.80;56.30
7234;DHT22;3658;47.992;10.158;2022-08-03T06:44:27;23.80;56.30
7234;DHT22;3658;47.992;10.158;2022-08-03T06:46:54;23.80;56.30
7234;DHT22;3658;47.992;10.158;2022-08-03T06:49:20;23.80;56.40
7234;DHT22;3658;47.992;10.158;2022-08-03T06:51:47;23.80;56.40
7234;DHT22;3658;47.992;10.158;2022-08-03T06:54:17;23.80;56.40
7234;DHT22;3658;47.992;10.158;2022-08-03T06:56:43;23.80;56.40
7234;DHT22;3658;47.992;10.158;2022-08-03T06:59:10;23.80;56.40
7234;DHT22;3658;47.992;10.158;2022-08-03T07:01:39;23.80;56.40
7234;DHT22;3658;47.992;10.158;2022-08-03T07:04:06;23.80;56.40
7234;DHT22;3658;47.992;10.158;2022-08-03T07:06:33;23.80;56.40
7234;DHT22;3658;47.992;10.158;2022-08-03T07:09:00;23.80;56.40
7234;DHT22;3658;47.992;10.158;2022-08-03T07:11:27;23.80;56.40
7234;DHT22;3658;47.992;10.158;2022-08-03T07:13:54;23.80;56.40
7234;DHT22;3658;47.992;10.158;2022-08-03T07:16:21;23.80;56.30
7234;DHT22;3658;47.992;10.158;2022-08-03T07:18:49;23.80;56.40
7234;DHT22;3658;47.992;10.158;2022-08-03T07:21:16;23.80;56.40
7234;DHT22;3658;47.992;10.158;2022-08-03T07:23:43;23.80;56.30
7234;DHT22;3658;47.992;10.158;2022-08-03T07:26:10;23.80;56.30
7234;DHT22;3658;47.992;10.158;2022-08-03T07:28:37;23.80;56.30
7234;DHT22;3658;47.992;10.158;2022-08-03T07:31:04;23.80;56.30
7234;DHT22;3658;47.992;10.158;2022-08-03T07:33:32;23.80;56.30
7234;DHT22;3658;47.992;10.158;2022-08-03T07:36:01;23.80;56.30
7234;DHT22;3658;47.992;10.158;2022-08-03T07:38:28;23.80;56.30
7234;DHT22;3658;47.992;10.158;2022-08-03T07:40:55;23.80;56.40
7234;DHT22;3658;47.992;10.158;2022-08-03T07:43:22;23.80;56.30
7234;DHT22;3658;47.992;10.158;2022-08-03T07:45:49;23.80;56.30
7234;DHT22;3658;47.992;10.158;2022-08-03T07:48:16;23.80;56.30
7234;DHT22;3658;47.992;10.158;2022-08-03T07:50:43;23.80;56.30
7234;DHT22;3658;47.992;10.158;2022-08-03T07:53:12;23.80;56.30
7234;DHT22;3658;47.992;10.158;2022-08-03T07:55:39;23.80;56.30
7234;DHT22;3658;47.992;10.158;2022-08-03T07:58:08;23.80;56.30
7234;DHT22;3658;47.992;10.158;2022-08-03T08:00:37;23.80;56.30
7234;DHT22;3658;47.992;10.158;2022-08-03T08:03:04;23.80;56.30
7234;DHT22;3658;47.992;10.158;2022-08-03T08:05:31;23.80;56.30
7234;DHT22;3658;47.992;10.158;2022-08-03T08:07:59;23.80;56.30
7234;DHT22;3658;47.992;10.158;2022-08-03T08:10:27;23.80;56.20
7234;DHT22;3658;47.992;10.158;2022-08-03T08:12:55;23.80;56.20
7234;DHT22;3658;47.992;10.158;2022-08-03T08:15:23;23.80;56.90
7234;DHT22;3658;47.992;10.158;2022-08-03T08:17:52;23.80;56.20
7234;DHT22;3658;47.992;10.158;2022-08-03T08:20:22;23.80;56.30
7234;DHT22;3658;47.992;10.158;2022-08-03T08:22:49;23.80;56.30
7234;DHT22;3658;47.992;10.158;2022-08-03T08:25:16;23.80;56.30
7234;DHT22;3658;47.992;10.158;2022-08-03T08:27:45;23.80;56.30
7234;DHT22;3658;47.992;10.158;2022-08-03T08:30:14;23.90;56.40
7234;DHT22;3658;47.992;10.158;2022-08-03T08:32:41;23.80;56.40
7234;DHT22;3658;47.992;10.158;2022-08-03T08:35:09;23.80;56.40
7234;DHT22;3658;47.992;10.158;2022-08-03T08:37:36;23.80;56.40
7234;DHT22;3658;47.992;10.158;2022-08-03T08:40:05;23.90;56.40
7234;DHT22;3658;47.992;10.158;2022-08-03T08:42:32;23.80;56.40
7234;DHT22;3658;47.992;10.158;2022-08-03T08:45:01;23.80;56.30
7234;DHT22;3658;47.992;10.158;2022-08-03T08:47:30;23.80;56.30
7234;DHT22;3658;47.992;10.158;2022-08-03T08:49:58;23.90;56.40
7234;DHT22;3658;47.992;10.158;2022-08-03T08:52:26;23.80;56.30
7234;DHT22;3658;47.992;10.158;2022-08-03T08:54:55;23.80;56.30
7234;DHT22;3658;47.992;10.158;2022-08-03T08:57:26;23.80;56.30
7234;DHT22;3658;47.992;10.158;2022-08-03T08:59:54;23.80;56.20
7234;DHT22;3658;47.992;10.158;2022-08-03T09:02:24;23.80;56.20
7234;DHT22;3658;47.992;10.158;2022-08-03T09:04:52;23.80;56.30
7234;DHT22;3658;47.992;10.158;2022-08-03T09:07:19;23.80;56.30
7234;DHT22;3658;47.992;10.158;2022-08-03T09:09:46;23.90;56.40
7234;DHT22;3658;47.992;10.158;2022-08-03T09:12:13;23.80;56.40
7234;DHT22;3658;47.992;10.158;2022-08-03T09:14:40;23.90;56.40
7234;DHT22;3658;47.992;10.158;2022-08-03T09:17:07;23.90;56.40
7234;DHT22;3658;47.992;10.158;2022-08-03T09:19:36;23.90;56.40
7234;DHT22;3658;47.992;10.158;2022-08-03T09:22:10;23.80;56.40
7234;DHT22;3658;47.992;10.158;2022-08-03T09:24:53;23.80;56.40
7234;DHT22;3658;47.992;10.158;2022-08-03T09:27:20;23.90;56.40
7234;DHT22;3658;47.992;10.158;2022-08-03T09:29:48;23.90;56.40
7234;DHT22;3658;47.992;10.158;2022-08-03T09:32:18;23.80;56.30
7234;DHT22;3658;47.992;10.158;2022-08-03T09:34:48;23.80;56.30
7234;DHT22;3658;47.992;10.158;2022-08-03T09:37:16;23.80;56.30
7234;DHT22;3658;47.992;10.158;2022-08-03T09:39:44;23.80;56.30
7234;DHT22;3658;47.992;10.158;2022-08-03T09:42:13;23.80;56.30
7234;DHT22;3658;47.992;10.158;2022-08-03T09:44:41;23.90;56.40
7234;DHT22;3658;47.992;10.158;2022-08-03T09:47:09;23.80;56.20
7234;DHT22;3658;47.992;10.158;2022-08-03T09:49:36;23.80;56.20
7234;DHT22;3658;47.992;10.158;2022-08-03T09:52:13;23.80;56.20
7234;DHT22;3658;47.992;10.158;2022-08-03T09:54:41;23.90;56.30
7234;DHT22;3658;47.992;10.158;2022-08-03T09:57:19;23.80;56.20
7234;DHT22;3658;47.992;10.158;2022-08-03T09:59:47;23.90;56.40
7234;DHT22;3658;47.992;10.158;2022-08-03T10:02:22;23.90;56.40
7234;DHT22;3658;47.992;10.158;2022-08-03T10:04:50;23.80;56.40
7234;DHT22;3658;47.992;10.158;2022-08-03T10:07:20;23.80;56.40
7234;DHT22;3658;47.992;10.158;2022-08-03T10:09:54;23.90;56.40
7234;DHT22;3658;47.992;10.158;2022-08-03T10:12:21;23.80;56.40
7234;DHT22;3658;47.992;10.158;2022-08-03T10:14:48;23.90;56.40
7234;DHT22;3658;47.992;10.158;2022-08-03T10:17:16;23.90;56.40
7234;DHT22;3658;47.992;10.158;2022-08-03T10:19:44;23.90;56.40
7234;DHT22;3658;47.992;10.158;2022-08-03T10:22:12;23.90;56.40
7234;DHT22;3658;47.992;10.158;2022-08-03T10:24:48;23.90;56.40
7234;DHT22;3658;47.992;10.158;2022-08-03T10:27:18;23.90;56.40
7234;DHT22;3658;47.992;10.158;2022-08-03T10:29:51;23.90;56.40
7234;DHT22;3658;47.992;10.158;2022-08-03T10:32:21;23.90;56.40
7234;DHT22;3658;47.992;10.158;2022-08-03T10:34:55;23.90;56.30
7234;DHT22;3658;47.992;10.158;2022-08-03T10:37:25;23.90;56.30
7234;DHT22;3658;47.992;10.158;2022-08-03T10:39:59;23.90;56.30
7234;DHT22;3658;47.992;10.158;2022-08-03T10:42:27;23.90;56.30
7234;DHT22;3658;47.992;10.158;2022-08-03T10:45:02;23.90;56.30
7234;DHT22;3658;47.992;10.158;2022-08-03T10:47:30;23.90;56.40
7234;DHT22;3658;47.992;10.158;2022-08-03T10:49:57;23.80;56.60
7234;DHT22;3658;47.992;10.158;2022-08-03T10:52:25;23.90;56.40
7234;DHT22;3658;47.992;10.158;2022-08-03T10:54:52;23.90;56.40
7234;DHT22;3658;47.992;10.158;2022-08-03T10:57:48;23.90;56.40
7234;DHT22;3658;47.992;10.158;2022-08-03T11:00:18;23.80;56.40
7234;DHT22;3658;47.992;10.158;2022-08-03T11:03:05;23.80;56.40
7234;DHT22;3658;47.992;10.158;2022-08-03T11:05:38;23.90;56.40
7234;DHT22;3658;47.992;10.158;2022-08-03T11:08:25;23.90;56.30
7234;DHT22;3658;47.992;10.158;2022-08-03T11:10:54;23.90;56.30
7234;DHT22;3658;47.992;10.158;2022-08-03T11:13:23;23.90;56.30
7234;DHT22;3658;47.992;10.158;2022-08-03T11:15:55;23.90;56.30
7234;DHT22;3658;47.992;10.158;2022-08-03T11:18:22;23.90;56.30
7234;DHT22;3658;47.992;10.158;2022-08-03T11:20:51;23.80;56.20
7234;DHT22;3658;47.992;10.158;2022-08-03T11:23:20;23.90;56.30
7234;DHT22;3658;47.992;10.158;2022-08-03T11:26:12;23.90;56.30
7234;DHT22;3658;47.992;10.158;2022-08-03T11:28:42;23.90;56.30
7234;DHT22;3658;47.992;10.158;2022-08-03T11:34:18;23.80;56.20
7234;DHT22;3658;47.992;10.158;2022-08-03T11:37:20;23.90;56.30
7234;DHT22;3658;47.992;10.158;2022-08-03T11:39:51;23.90;56.40
7234;DHT22;3658;47.992;10.158;2022-08-03T11:42:40;23.90;56.40
7234;DHT22;3658;47.992;10.158;2022-08-03T11:45:14;23.80;56.30
7234;DHT22;3658;47.992;10.158;2022-08-03T11:47:41;23.90;56.40
7234;DHT22;3658;47.992;10.158;2022-08-03T11:50:09;23.90;56.30
7234;DHT22;3658;47.992;10.158;2022-08-03T11:52:40;23.90;56.30
7234;DHT22;3658;47.992;10.158;2022-08-03T11:55:15;23.90;56.30
7234;DHT22;3658;47.992;10.158;2022-08-03T11:57:43;23.90;56.20
7234;DHT22;3658;47.992;10.158;2022-08-03T12:00:27;23.80;56.20
7234;DHT22;3658;47.992;10.158;2022-08-03T12:02:59;23.90;56.20
7234;DHT22;3658;47.992;10.158;2022-08-03T12:05:38;23.80;56.20
7234;DHT22;3658;47.992;10.158;2022-08-03T12:08:06;23.90;56.20
7234;DHT22;3658;47.992;10.158;2022-08-03T12:10:34;23.80;56.20
7234;DHT22;3658;47.992;10.158;2022-08-03T12:13:02;23.90;56.20
7234;DHT22;3658;47.992;10.158;2022-08-03T12:15:35;23.90;56.20
7234;DHT22;3658;47.992;10.158;2022-08-03T12:18:12;23.90;56.20
7234;DHT22;3658;47.992;10.158;2022-08-03T12:20:39;23.90;56.20
7234;DHT22;3658;47.992;10.158;2022-08-03T12:23:07;23.90;56.20
7234;DHT22;3658;47.992;10.158;2022-08-03T12:25:37;23.90;56.20
7234;DHT22;3658;47.992;10.158;2022-08-03T12:28:12;23.90;56.20
7234;DHT22;3658;47.992;10.158;2022-08-03T12:30:43;23.90;56.20
7234;DHT22;3658;47.992;10.158;2022-08-03T12:33:19;23.90;56.20
7234;DHT22;3658;47.992;10.158;2022-08-03T12:35:47;23.90;56.20
7234;DHT22;3658;47.992;10.158;2022-08-03T12:38:19;23.80;56.10
7234;DHT22;3658;47.992;10.158;2022-08-03T12:40:58;23.90;56.20
7234;DHT22;3658;47.992;10.158;2022-08-03T12:43:25;23.90;56.20
7234;DHT22;3658;47.992;10.158;2022-08-03T12:46:08;23.90;56.20
7234;DHT22;3658;47.992;10.158;2022-08-03T12:48:35;23.90;56.20
7234;DHT22;3658;47.992;10.158;2022-08-03T12:51:09;23.90;56.20
7234;DHT22;3658;47.992;10.158;2022-08-03T12:53:36;23.90;56.20
7234;DHT22;3658;47.992;10.158;2022-08-03T12:56:04;23.90;56.20
7234;DHT22;3658;47.992;10.158;2022-08-03T12:58:33;23.90;56.20
7234;DHT22;3658;47.992;10.158;2022-08-03T13:01:01;23.90;56.20
7234;DHT22;3658;47.992;10.158;2022-08-03T13:03:38;23.90;56.20
7234;DHT22;3658;47.992;10.158;2022-08-03T13:06:10;23.90;56.20
7234;DHT22;3658;47.992;10.158;2022-08-03T13:08:38;23.90;56.20
7234;DHT22;3658;47.992;10.158;2022-08-03T13:11:19;23.90;56.20
7234;DHT22;3658;47.992;10.158;2022-08-03T13:13:47;23.90;56.20
7234;DHT22;3658;47.992;10.158;2022-08-03T13:16:14;23.90;56.20
7234;DHT22;3658;47.992;10.158;2022-08-03T13:18:42;23.90;56.20
7234;DHT22;3658;47.992;10.158;2022-08-03T13:21:12;23.90;56.20
7234;DHT22;3658;47.992;10.158;2022-08-03T13:23:39;23.90;56.20
7234;DHT22;3658;47.992;10.158;2022-08-03T13:26:06;23.90;56.20
7234;DHT22;3658;47.992;10.158;2022-08-03T13:28:33;23.90;56.20
7234;DHT22;3658;47.992;10.158;2022-08-03T13:31:00;23.90;56.20
7234;DHT22;3658;47.992;10.158;2022-08-03T13:33:27;23.90;56.20
7234;DHT22;3658;47.992;10.158;2022-08-03T13:35:56;23.90;56.20
7234;DHT22;3658;47.992;10.158;2022-08-03T13:38:23;23.90;56.20
7234;DHT22;3658;47.992;10.158;2022-08-03T13:40:51;23.90;56.20
7234;DHT22;3658;47.992;10.158;2022-08-03T13:43:18;23.90;56.20
7234;DHT22;3658;47.992;10.158;2022-08-03T13:45:46;23.90;56.20
7234;DHT22;3658;47.992;10.158;2022-08-03T13:48:13;23.90;56.20
7234;DHT22;3658;47.992;10.158;2022-08-03T13:50:40;23.90;56.20
7234;DHT22;3658;47.992;10.158;2022-08-03T13:53:09;23.90;56.20
7234;DHT22;3658;47.992;10.158;2022-08-03T13:55:35;23.90;56.20
7234;DHT22;3658;47.992;10.158;2022-08-03T13:58:02;23.90;56.20
7234;DHT22;3658;47.992;10.158;2022-08-03T14:00:32;23.90;56.20
7234;DHT22;3658;47.992;10.158;2022-08-03T14:03:00;23.90;56.20
7234;DHT22;3658;47.992;10.158;2022-08-03T14:05:28;23.90;56.20
7234;DHT22;3658;47.992;10.158;2022-08-03T14:07:55;23.90;56.20
7234;DHT22;3658;47.992;10.158;2022-08-03T14:10:23;23.90;56.20
7234;DHT22;3658;47.992;10.158;2022-08-03T14:12:50;23.90;56.20
7234;DHT22;3658;47.992;10.158;2022-08-03T14:15:17;23.90;56.20
7234;DHT22;3658;47.992;10.158;2022-08-03T14:17:44;23.90;56.20
7234;DHT22;3658;47.992;10.158;2022-08-03T14:20:11;23.90;56.20
7234;DHT22;3658;47.992;10.158;2022-08-03T14:22:39;23.90;56.20
7234;DHT22;3658;47.992;10.158;2022-08-03T14:25:07;23.90;56.20
7234;DHT22;3658;47.992;10.158;2022-08-03T14:27:35;23.90;56.20
7234;DHT22;3658;47.992;10.158;2022-08-03T14:30:03;23.90;56.20
7234;DHT22;3658;47.992;10.158;2022-08-03T14:32:30;23.90;56.20
7234;DHT22;3658;47.992;10.158;2022-08-03T14:34:57;23.90;56.20
7234;DHT22;3658;47.992;10.158;2022-08-03T14:37:24;23.90;56.20
7234;DHT22;3658;47.992;10.158;2022-08-03T14:39:51;23.90;56.20
7234;DHT22;3658;47.992;10.158;2022-08-03T14:42:18;23.90;56.20
7234;DHT22;3658;47.992;10.158;2022-08-03T14:44:47;23.90;56.20
7234;DHT22;3658;47.992;10.158;2022-08-03T14:47:14;23.90;56.20
7234;DHT22;3658;47.992;10.158;2022-08-03T14:49:41;23.90;56.20
7234;DHT22;3658;47.992;10.158;2022-08-03T14:52:08;23.90;56.20
7234;DHT22;3658;47.992;10.158;2022-08-03T14:54:35;23.90;56.20
7234;DHT22;3658;47.992;10.158;2022-08-03T14:57:02;24.00;56.30
7234;DHT22;3658;47.992;10.158;2022-08-03T14:59:29;23.90;56.20
7234;DHT22;3658;47.992;10.158;2022-08-03T15:01:57;23.90;56.20
7234;DHT22;3658;47.992;10.158;2022-08-03T15:04:24;24.00;56.20
7234;DHT22;3658;47.992;10.158;2022-08-03T15:06:51;23.90;56.20
7234;DHT22;3658;47.992;10.158;2022-08-03T15:09:18;23.90;56.20
7234;DHT22;3658;47.992;10.158;2022-08-03T15:11:45;24.00;56.20
7234;DHT22;3658;47.992;10.158;2022-08-03T15:14:12;23.90;56.20
7234;DHT22;3658;47.992;10.158;2022-08-03T15:16:39;23.90;56.20
7234;DHT22;3658;47.992;10.158;2022-08-03T15:19:08;23.90;56.20
7234;DHT22;3658;47.992;10.158;2022-08-03T15:21:35;24.00;56.20
7234;DHT22;3658;47.992;10.158;2022-08-03T15:24:02;23.90;56.20
7234;DHT22;3658;47.992;10.158;2022-08-03T15:26:29;23.90;56.20
7234;DHT22;3658;47.992;10.158;2022-08-03T15:28:56;23.90;56.20
7234;DHT22;3658;47.992;10.158;2022-08-03T15:31:24;23.90;56.20
7234;DHT22;3658;47.992;10.158;2022-08-03T15:33:51;24.00;56.20
7234;DHT22;3658;47.992;10.158;2022-08-03T15:36:20;24.00;56.20
7234;DHT22;3658;47.992;10.158;2022-08-03T15:38:47;23.90;56.20
7234;DHT22;3658;47.992;10.158;2022-08-03T15:41:14;23.90;56.10
7234;DHT22;3658;47.992;10.158;2022-08-03T15:43:41;23.90;56.20
7234;DHT22;3658;47.992;10.158;2022-08-03T15:46:10;24.00;56.20
7234;DHT22;3658;47.992;10.158;2022-08-03T15:48:37;24.00;56.20
7234;DHT22;3658;47.992;10.158;2022-08-03T15:51:05;23.90;56.10
7234;DHT22;3658;47.992;10.158;2022-08-03T15:53:34;23.90;56.20
7234;DHT22;3658;47.992;10.158;2022-08-03T15:56:03;24.00;56.20
7234;DHT22;3658;47.992;10.158;2022-08-03T15:58:32;23.90;56.20
7234;DHT22;3658;47.992;10.158;2022-08-03T16:00:59;24.00;56.20
7234;DHT22;3658;47.992;10.158;2022-08-03T16:03:27;24.00;56.20